Time;durP1;ratioP1;P1;durP2;ratioP2;P2;SDS_P1;SDS_P2;PMS_P1;PMS_P2;Temp;Humidity;BMP_temperature;BMP_pressure;BME280_temperature;BME280_humidity;BME280_pressure;Samples;Min_cycle;Max_cycle;Signal;HPM_P1;HPM_P2
2024/03/07 00:01:13;;;;;;;18.50;11.43;;;;;;;2.91;100.00;102000.22;4942760;28;20066;-86
2024/03/07 00:03:40;;;;;;;17.20;10.90;;;;;;;2.87;100.00;102008.63;4955689;28;20395;-86
2024/03/07 00:06:08;;;;;;;16.00;10.70;;;;;;;2.84;100.00;102004.22;4957380;28;20081;-85
2024/03/07 00:08:36;;;;;;;16.67;10.65;;;;;;;2.81;100.00;102007.53;4956664;28;20047;-85
2024/03/07 00:11:07;;;;;;;17.00;11.80;;;;;;;2.79;100.00;102016.03;4949576;28;20047;-85
2024/03/07 00:13:34;;;;;;;19.85;11.55;;;;;;;2.73;100.00;102008.91;4950723;28;20040;-85
2024/03/07 00:16:05;;;;;;;19.77;12.15;;;;;;;2.72;100.00;102014.03;4946121;28;20039;-86
2024/03/07 00:18:32;;;;;;;19.58;11.38;;;;;;;2.73;100.00;102003.75;4953264;28;20030;-85
2024/03/07 00:21:00;;;;;;;18.20;10.65;;;;;;;2.75;100.00;101998.63;4942243;28;20521;-86
2024/03/07 00:23:27;;;;;;;18.92;11.80;;;;;;;2.70;100.00;101997.53;4957790;28;20138;-86
2024/03/07 00:25:54;;;;;;;15.23;10.10;;;;;;;2.67;100.00;102003.44;4955301;28;20151;-86
2024/03/07 00:28:20;;;;;;;18.77;11.13;;;;;;;2.63;100.00;101997.28;4959684;28;20054;-85
2024/03/07 00:30:50;;;;;;;13.88;9.90;;;;;;;2.57;100.00;102006.44;4957816;28;20490;-84
2024/03/07 00:33:16;;;;;;;18.27;10.15;;;;;;;2.62;100.00;102003.25;4962303;28;20061;-86
2024/03/07 00:35:44;;;;;;;19.33;11.27;;;;;;;2.63;100.00;102001.56;4945834;28;20046;-84
2024/03/07 00:38:11;;;;;;;14.55;10.18;;;;;;;2.56;100.00;101997.81;4958877;28;20081;-86
2024/03/07 00:40:37;;;;;;;15.40;9.40;;;;;;;2.59;100.00;101994.47;4953399;28;20090;-85
2024/03/07 00:43:05;;;;;;;15.82;11.10;;;;;;;2.51;100.00;101994.13;4958635;28;20051;-86
2024/03/07 00:45:32;;;;;;;16.23;10.32;;;;;;;2.50;100.00;102000.09;4953912;28;20129;-85
2024/03/07 00:47:59;;;;;;;15.57;10.43;;;;;;;2.53;100.00;101992.50;4958548;28;20039;-86
2024/03/07 00:50:27;;;;;;;21.58;11.02;;;;;;;2.43;100.00;101992.91;4943515;28;20047;-85
2024/03/07 00:52:57;;;;;;;11.82;9.05;;;;;;;2.44;100.00;101986.91;4962850;28;20123;-86
2024/03/07 00:58:08;;;;;;;13.15;8.60;;;;;;;2.35;100.00;101984.78;4949313;28;20043;-86
2024/03/07 01:00:50;;;;;;;15.90;9.60;;;;;;;2.39;100.00;101981.53;4957351;28;20043;-85
2024/03/07 01:03:18;;;;;;;14.65;8.82;;;;;;;2.35;100.00;101978.72;4970539;28;20042;-85
2024/03/07 01:05:48;;;;;;;17.25;10.10;;;;;;;2.32;100.00;101976.88;4964101;28;20095;-85
2024/03/07 01:08:15;;;;;;;16.58;9.27;;;;;;;2.33;100.00;101975.19;4948268;28;20106;-84
2024/03/07 01:10:42;;;;;;;17.58;9.70;;;;;;;2.31;100.00;101976.00;4961350;29;20035;-85
2024/03/07 01:13:19;;;;;;;13.38;8.95;;;;;;;2.32;100.00;101976.88;4963277;28;20071;-85
2024/03/07 01:15:46;;;;;;;16.33;9.38;;;;;;;2.33;100.00;101975.19;4957998;28;20054;-86
2024/03/07 01:18:13;;;;;;;18.25;11.07;;;;;;;2.32;100.00;101982.03;4948180;28;20455;-85
2024/03/07 01:20:43;;;;;;;14.18;9.88;;;;;;;2.27;100.00;101987.03;4962879;28;20045;-86
2024/03/07 01:23:10;;;;;;;18.17;10.75;;;;;;;2.34;100.00;101988.19;4961557;28;20109;-85
2024/03/07 01:25:37;;;;;;;15.82;10.95;;;;;;;2.36;100.00;101983.06;4965266;28;20046;-85
2024/03/07 01:28:04;;;;;;;18.40;10.10;;;;;;;2.33;100.00;101985.53;4965587;28;20051;-86
2024/03/07 01:30:31;;;;;;;17.75;11.05;;;;;;;2.26;100.00;101979.19;4955601;28;20169;-85
2024/03/07 01:32:58;;;;;;;15.50;11.13;;;;;;;2.26;100.00;101984.38;4961325;28;20046;-85
2024/03/07 01:35:25;;;;;;;18.63;10.57;;;;;;;2.22;100.00;101983.34;4957012;28;20588;-85
2024/03/07 01:37:54;;;;;;;17.38;10.63;;;;;;;2.18;100.00;101981.41;4954536;28;20070;-84
2024/03/07 01:40:24;;;;;;;13.98;10.02;;;;;;;2.14;100.00;101982.09;4948771;28;20061;-86
2024/03/07 01:42:52;;;;;;;18.85;9.95;;;;;;;2.13;100.00;101982.91;4958515;28;20051;-84
2024/03/07 01:45:19;;;;;;;16.13;10.57;;;;;;;2.15;100.00;101989.00;4953312;28;20391;-87
2024/03/07 01:47:49;;;;;;;16.27;10.13;;;;;;;2.13;100.00;101985.50;4966880;28;20098;-86
2024/03/07 01:50:17;;;;;;;20.00;11.00;;;;;;;2.10;100.00;101980.16;4948007;28;20090;-85
2024/03/07 01:52:46;;;;;;;19.48;11.73;;;;;;;2.08;100.00;101976.63;4960828;28;20132;-85
2024/03/07 01:55:14;;;;;;;19.75;11.10;;;;;;;2.10;100.00;101986.22;4979357;28;20106;-85
2024/03/07 01:57:42;;;;;;;18.00;9.45;;;;;;;2.09;100.00;101981.88;4968497;28;20054;-85
2024/03/07 02:00:10;;;;;;;17.08;11.32;;;;;;;2.07;100.00;101985.19;4958677;28;20047;-85
2024/03/07 02:02:40;;;;;;;15.75;10.73;;;;;;;2.05;100.00;101984.25;4963379;28;20043;-84
2024/03/07 02:05:07;;;;;;;18.38;12.13;;;;;;;2.01;100.00;101978.06;4960967;28;20110;-84
2024/03/07 02:07:34;;;;;;;16.73;10.43;;;;;;;2.00;100.00;101975.41;4941586;28;20050;-85
2024/03/07 02:10:03;;;;;;;20.90;11.48;;;;;;;1.96;100.00;101970.06;4943323;28;20066;-85
2024/03/07 02:12:33;;;;;;;19.05;12.32;;;;;;;1.93;100.00;101976.78;4956545;28;20082;-85
2024/03/07 02:15:02;;;;;;;20.25;12.10;;;;;;;1.91;100.00;101971.53;4956361;28;20510;-84
2024/03/07 02:17:29;;;;;;;18.02;11.13;;;;;;;1.86;100.00;101966.97;4944749;28;20051;-86
2024/03/07 02:19:55;;;;;;;17.90;11.63;;;;;;;1.84;100.00;101966.00;4941582;28;20050;-86
2024/03/07 02:22:22;;;;;;;17.17;12.75;;;;;;;1.76;100.00;101971.72;4956088;28;20039;-84
2024/03/07 02:24:52;;;;;;;19.23;12.60;;;;;;;1.79;100.00;101973.56;4955811;28;20059;-84
2024/03/07 02:27:18;;;;;;;21.08;10.77;;;;;;;1.78;100.00;101970.06;4940733;28;20053;-86
2024/03/07 02:29:46;;;;;;;16.83;10.80;;;;;;;1.79;100.00;101976.13;4956200;28;20457;-86
2024/03/07 02:32:13;;;;;;;15.63;9.95;;;;;;;1.77;100.00;101976.06;4943581;28;20046;-84
2024/03/07 02:34:40;;;;;;;17.40;11.52;;;;;;;1.73;100.00;101970.66;4951278;28;20046;-85
2024/03/07 02:37:09;;;;;;;20.88;11.98;;;;;;;1.73;100.00;101962.91;4940660;28;20046;-83
2024/03/07 02:39:37;;;;;;;20.17;10.77;;;;;;;1.73;100.00;101956.06;4952453;28;20161;-84
2024/03/07 02:42:04;;;;;;;17.70;11.48;;;;;;;1.68;100.00;101962.69;4941243;28;20039;-84
2024/03/07 02:44:31;;;;;;;19.98;12.38;;;;;;;1.68;100.00;101969.56;4935590;28;20154;-85
2024/03/07 02:46:59;;;;;;;21.48;12.75;;;;;;;1.64;100.00;101963.34;4956987;28;20105;-85
2024/03/07 02:49:25;;;;;;;22.60;13.02;;;;;;;1.67;100.00;101954.88;4955240;28;20047;-83
2024/03/07 02:51:52;;;;;;;18.45;13.00;;;;;;;1.69;100.00;101966.16;4940690;28;20135;-85
2024/03/07 02:54:18;;;;;;;23.88;12.18;;;;;;;1.63;100.00;101961.56;4958244;28;20050;-84
2024/03/07 02:56:45;;;;;;;22.10;13.10;;;;;;;1.63;100.00;101962.47;4938686;29;20459;-85
2024/03/07 02:59:12;;;;;;;21.60;11.63;;;;;;;1.63;100.00;101961.56;4932363;28;20053;-84
2024/03/07 03:01:39;;;;;;;21.17;12.15;;;;;;;1.62;100.00;101957.25;4961137;28;20051;-84
2024/03/07 03:04:11;;;;;;;22.10;12.85;;;;;;;1.58;100.00;101953.63;4942543;28;20047;-85
2024/03/07 03:06:37;;;;;;;19.13;12.25;;;;;;;1.58;100.00;101950.19;4943693;28;20055;-85
2024/03/07 03:09:05;;;;;;;19.48;12.10;;;;;;;1.51;100.00;101950.66;4940563;28;20035;-86
2024/03/07 03:11:31;;;;;;;24.15;13.30;;;;;;;1.54;100.00;101955.97;4944770;28;20046;-85
2024/03/07 03:13:58;;;;;;;18.70;12.77;;;;;;;1.53;100.00;101960.25;4957197;28;20126;-85
2024/03/07 03:16:25;;;;;;;22.15;12.70;;;;;;;1.53;100.00;101955.09;4951563;28;20137;-86
2024/03/07 03:18:52;;;;;;;20.05;12.35;;;;;;;1.50;100.00;101949.78;4958384;28;20063;-85
2024/03/07 03:21:19;;;;;;;23.15;14.63;;;;;;;1.51;100.00;101948.09;4939182;28;20051;-85
2024/03/07 03:23:48;;;;;;;26.50;14.38;;;;;;;1.51;100.00;101948.09;4956475;28;20051;-85
2024/03/07 03:26:17;;;;;;;22.17;14.02;;;;;;;1.57;100.00;101944.09;4959941;28;20073;-84
2024/03/07 03:28:46;;;;;;;20.17;13.05;;;;;;;1.67;100.00;101939.38;4960266;28;20055;-84
2024/03/07 03:31:14;;;;;;;24.98;13.15;;;;;;;1.65;100.00;101942.78;4958762;28;20062;-84
2024/03/07 03:33:41;;;;;;;22.40;12.75;;;;;;;1.75;100.00;101944.13;4945627;28;20718;-85
2024/03/07 03:36:08;;;;;;;22.20;13.18;;;;;;;1.76;100.00;101942.41;4955851;28;20479;-86
2024/03/07 03:38:35;;;;;;;21.63;13.18;;;;;;;1.78;100.00;101940.78;4940747;28;20203;-84
2024/03/07 03:41:01;;;;;;;19.95;11.30;;;;;;;1.86;100.00;101936.00;4957823;28;20043;-86
2024/03/07 03:43:28;;;;;;;22.23;13.60;;;;;;;1.96;100.00;101939.06;4955841;28;20116;-86
2024/03/07 03:45:55;;;;;;;19.65;12.63;;;;;;;1.94;100.00;101937.22;4954287;28;20061;-85
2024/03/07 03:48:24;;;;;;;25.58;11.55;;;;;;;2.01;100.00;101940.97;4954045;28;20105;-86
2024/03/07 03:51:00;;;;;;;17.33;11.88;;;;;;;2.10;100.00;101938.81;4950676;28;20051;-84
2024/03/07 03:53:26;;;;;;;16.75;11.23;;;;;;;2.07;100.00;101941.28;4944806;28;20046;-86
2024/03/07 03:55:53;;;;;;;20.02;12.20;;;;;;;2.08;100.00;101936.19;4942488;29;20060;-86
2024/03/07 03:58:20;;;;;;;19.80;13.57;;;;;;;1.96;100.00;101935.63;4963062;28;20046;-85
2024/03/07 04:00:46;;;;;;;23.10;13.25;;;;;;;1.90;100.00;101932.75;4947105;28;20054;-84
2024/03/07 04:03:13;;;;;;;23.10;13.02;;;;;;;1.97;100.00;101935.69;4956984;28;20135;-84
2024/03/07 04:05:42;;;;;;;20.60;12.35;;;;;;;1.93;100.00;101930.28;4978169;28;20043;-85
2024/03/07 04:08:09;;;;;;;19.63;12.25;;;;;;;2.05;100.00;101935.19;4962839;28;20082;-85
2024/03/07 04:10:36;;;;;;;20.95;12.63;;;;;;;1.85;100.00;101929.94;4958366;28;20042;-85
2024/03/07 04:13:03;;;;;;;20.23;12.10;;;;;;;1.87;100.00;101937.78;4947399;28;20039;-85
2024/03/07 04:15:31;;;;;;;22.63;12.27;;;;;;;1.98;100.00;101940.03;4963050;28;20051;-84
2024/03/07 04:18:01;;;;;;;20.60;13.60;;;;;;;1.91;100.00;101934.53;4960681;28;20055;-83
2024/03/07 04:20:28;;;;;;;18.00;11.88;;;;;;;1.90;100.00;101932.75;4947449;28;20039;-84
2024/03/07 04:22:55;;;;;;;23.75;13.85;;;;;;;1.92;100.00;101941.47;4954675;28;20081;-84
2024/03/07 04:25:22;;;;;;;23.65;13.05;;;;;;;1.98;100.00;101927.13;4944427;28;20499;-84
2024/03/07 04:27:49;;;;;;;20.13;11.73;;;;;;;2.13;100.00;101931.25;4943259;28;20061;-85
2024/03/07 04:30:19;;;;;;;27.50;13.95;;;;;;;2.11;100.00;101926.00;4944508;28;20061;-85
2024/03/07 04:32:45;;;;;;;23.35;13.50;;;;;;;2.20;100.00;101922.06;4960664;28;20097;-84
2024/03/07 04:35:13;;;;;;;20.58;13.50;;;;;;;2.22;100.00;101921.31;4961310;28;20045;-85
2024/03/07 04:37:40;;;;;;;25.98;13.32;;;;;;;2.23;100.00;101914.44;4962115;28;20083;-85
2024/03/07 04:40:15;;;;;;;20.20;13.23;;;;;;;2.30;100.00;101917.38;4955244;28;20542;-85
2024/03/07 04:42:44;;;;;;;23.20;14.30;;;;;;;2.25;100.00;101916.28;4959421;28;20042;-85
2024/03/07 04:45:13;;;;;;;23.20;14.10;;;;;;;2.18;100.00;101923.69;4956561;28;20047;-86
2024/03/07 04:47:44;;;;;;;20.17;12.02;;;;;;;2.25;100.00;101915.41;4958697;28;20053;-86
2024/03/07 04:50:10;;;;;;;23.70;14.70;;;;;;;2.31;100.00;101926.91;4959204;28;20026;-86
2024/03/07 04:52:40;;;;;;;27.35;14.38;;;;;;;2.39;100.00;101921.22;4955885;28;20070;-84
2024/03/07 04:55:10;;;;;;;22.02;13.45;;;;;;;2.44;100.00;101918.00;4959351;28;20035;-86
2024/03/07 04:57:39;;;;;;;20.80;13.88;;;;;;;2.44;100.00;101918.00;4941116;28;20047;-84
2024/03/07 05:00:13;;;;;;;23.92;13.70;;;;;;;2.54;100.00;101928.75;4949252;28;20078;-85
2024/03/07 05:02:40;;;;;;;;;;;;;;;2.32;100.00;101922.63;4944977;28;20047;-84
2024/03/07 05:05:07;;;;;;;29.90;16.23;;;;;;;2.34;100.00;101920.13;4946936;28;19930;-86
2024/03/07 05:07:35;;;;;;;27.52;15.35;;;;;;;2.35;100.00;101921.88;4940774;28;20122;-83
2024/03/07 05:10:04;;;;;;;25.73;16.40;;;;;;;2.22;100.00;101931.66;4942285;28;20078;-86
2024/03/07 05:12:32;;;;;;;24.42;15.65;;;;;;;2.31;100.00;101921.75;4961275;28;20039;-85
2024/03/07 05:14:59;;;;;;;25.60;14.80;;;;;;;2.32;100.00;101925.19;4975840;28;20187;-85
2024/03/07 05:17:26;;;;;;;26.95;16.25;;;;;;;2.39;100.00;101924.66;4975810;28;20126;-86
2024/03/07 05:19:52;;;;;;;31.48;17.98;;;;;;;2.40;100.00;101931.63;4959646;28;20134;-84
2024/03/07 05:22:22;;;;;;;32.00;17.17;;;;;;;2.42;100.00;101927.38;4961377;28;20114;-84
2024/03/07 05:24:50;;;;;;;34.13;18.88;;;;;;;2.39;100.00;101931.56;4976459;28;20110;-86
2024/03/07 05:27:16;;;;;;;32.78;17.65;;;;;;;2.42;100.00;101932.56;4960786;28;20046;-85
2024/03/07 05:29:43;;;;;;;32.75;18.05;;;;;;;2.48;100.00;101929.38;4961328;28;20125;-87
2024/03/07 05:32:25;;;;;;;30.83;18.58;;;;;;;2.42;100.00;101934.25;4960372;28;20050;-87
2024/03/07 05:34:54;;;;;;;38.65;19.95;;;;;;;2.36;100.00;101933.97;4954558;28;20498;-85
2024/03/07 05:37:23;;;;;;;31.63;17.42;;;;;;;2.56;100.00;101940.06;4963539;28;20123;-88
2024/03/07 05:39:54;;;;;;;34.17;19.90;;;;;;;2.55;100.00;101935.69;4980637;28;20058;-86
2024/03/07 05:42:21;;;;;;;37.20;19.17;;;;;;;2.53;100.00;101935.63;4939596;28;20046;-86
2024/03/07 05:44:48;;;;;;;43.38;21.48;;;;;;;2.59;100.00;101935.88;4952363;28;20542;-86
2024/03/07 05:47:16;;;;;;;40.95;19.75;;;;;;;2.58;100.00;101939.31;4970744;28;20062;-87
2024/03/07 05:49:50;;;;;;;37.85;20.35;;;;;;;2.50;100.00;101940.66;4964664;28;20054;-87
2024/03/07 05:52:23;;;;;;;44.60;23.27;;;;;;;2.48;100.00;101939.72;4949190;28;20046;-85
2024/03/07 05:54:51;;;;;;;45.43;22.00;;;;;;;2.47;100.00;101949.16;4958973;28;20046;-84
2024/03/07 05:57:17;;;;;;;47.08;22.20;;;;;;;2.57;100.00;101944.38;4975136;28;20102;-87
2024/03/07 05:59:47;;;;;;;48.75;22.73;;;;;;;2.56;100.00;101938.34;4948034;28;20114;-87
2024/03/07 06:02:15;;;;;;;56.05;22.77;;;;;;;2.36;100.00;101949.47;4934972;28;20067;-87
2024/03/07 06:04:50;;;;;;;51.17;21.85;;;;;;;2.52;100.00;101951.09;4946658;28;20046;-87
2024/03/07 06:07:24;;;;;;;54.33;24.15;;;;;;;2.45;100.00;101952.47;4962750;28;20050;-86
2024/03/07 06:09:51;;;;;;;52.58;23.35;;;;;;;2.44;100.00;101949.03;4967096;28;20043;-89
2024/03/07 06:12:18;;;;;;;55.75;26.17;;;;;;;2.55;100.00;101953.78;4943126;28;20073;-88
2024/03/07 06:14:45;;;;;;;42.97;22.25;;;;;;;2.52;100.00;101951.97;4941453;28;20047;-87
2024/03/07 06:17:12;;;;;;;51.92;25.23;;;;;;;2.59;100.00;101948.81;4968555;28;20077;-88
2024/03/07 06:19:41;;;;;;;60.50;25.17;;;;;;;2.60;100.00;101948.00;4966423;28;20454;-88
2024/03/07 06:22:08;;;;;;;52.28;23.52;;;;;;;2.70;100.00;101957.06;4955280;28;20045;-88
2024/03/07 06:24:35;;;;;;;53.13;23.77;;;;;;;2.71;100.00;101952.78;4964570;28;20073;-86
2024/03/07 06:27:03;;;;;;;64.05;25.92;;;;;;;2.68;100.00;101955.22;4951698;28;20569;-87
2024/03/07 06:29:31;;;;;;;57.33;26.33;;;;;;;2.77;100.00;101959.09;4949396;28;20194;-87
2024/03/07 06:31:58;;;;;;;59.97;25.73;;;;;;;2.89;100.00;101960.47;4963404;28;20239;-89
2024/03/07 06:34:25;;;;;;;49.17;23.73;;;;;;;2.79;100.00;101962.66;4960469;28;20043;-86
2024/03/07 06:36:52;;;;;;;48.80;24.02;;;;;;;2.91;100.00;101958.84;4947635;28;20054;-88
2024/03/07 06:39:28;;;;;;;57.08;25.88;;;;;;;2.87;100.00;101960.41;4948118;28;20054;-88
2024/03/07 06:41:56;;;;;;;60.72;25.60;;;;;;;2.94;100.00;101954.66;4956160;28;20086;-86
2024/03/07 06:44:26;;;;;;;53.90;25.70;;;;;;;3.07;100.00;101962.97;4948272;28;20047;-85
2024/03/07 06:46:58;;;;;;;61.08;27.75;;;;;;;3.01;100.00;101958.38;4943694;28;20180;-85
2024/03/07 06:49:24;;;;;;;73.38;30.55;;;;;;;3.09;100.00;101957.03;4943698;28;20058;-86
2024/03/07 06:51:54;;;;;;;55.10;25.88;;;;;;;3.16;100.00;101954.72;4956051;28;20715;-86
2024/03/07 06:54:24;;;;;;;58.45;27.00;;;;;;;3.22;100.00;101957.53;4948877;28;20062;-86
2024/03/07 06:56:51;;;;;;;67.78;27.77;;;;;;;3.16;100.00;101965.06;4944371;28;20137;-87
2024/03/07 06:59:19;;;;;;;73.25;30.30;;;;;;;3.13;100.00;101951.16;4958358;28;20043;-87
2024/03/07 07:01:46;;;;;;;60.65;28.73;;;;;;;3.24;100.00;101961.09;4961489;28;20101;-85
2024/03/07 07:04:14;;;;;;;59.90;26.95;;;;;;;3.22;100.00;101958.44;4968979;28;20118;-86
2024/03/07 07:06:42;;;;;;;62.85;27.02;;;;;;;3.30;100.00;101956.19;4960678;28;20106;-85
2024/03/07 07:09:19;;;;;;;64.55;27.80;;;;;;;3.34;100.00;101962.34;4945454;28;20380;-85
2024/03/07 07:11:49;;;;;;;68.30;28.08;;;;;;;3.48;100.00;101956.03;4980846;28;20062;-85
2024/03/07 07:14:20;;;;;;;58.80;26.33;;;;;;;3.60;100.00;101958.25;4947407;28;20137;-83
2024/03/07 07:16:53;;;;;;;76.05;31.33;;;;;;;3.64;100.00;101958.44;4946784;28;20733;-86
2024/03/07 07:19:25;;;;;;;77.55;32.22;;;;;;;3.69;100.00;101957.72;4929242;28;20410;-86
2024/03/07 07:21:53;;;;;;;61.55;26.48;;;;;;;3.67;100.00;101961.97;4960656;28;20403;-86
2024/03/07 07:24:25;;;;;;;71.63;27.50;;;;;;;3.69;100.00;101958.63;4945562;28;19938;-85
2024/03/07 07:26:53;;;;;;;67.72;28.30;;;;;;;3.67;100.00;101959.41;4947619;28;20546;-83
2024/03/07 07:29:23;;;;;;;68.05;27.00;;;;;;;3.57;100.00;101964.19;4947120;28;20133;-86
2024/03/07 07:31:51;;;;;;;68.63;26.08;;;;;;;3.67;100.00;101949.91;4942881;28;20047;-85
2024/03/07 07:34:28;;;;;;;63.33;25.83;;;;;;;3.56;100.00;101957.25;4939218;28;20086;-85
2024/03/07 07:36:54;;;;;;;61.83;28.20;;;;;;;3.56;100.00;101952.06;4958816;28;20275;-86
2024/03/07 07:39:21;;;;;;;63.15;29.10;;;;;;;3.74;100.00;101946.75;4943752;28;20069;-86
2024/03/07 07:45:26;;;;;;;62.88;26.02;;;;;;;3.85;100.00;101946.31;4973798;28;20050;-87
2024/03/07 07:47:54;;;;;;;61.30;26.65;;;;;;;3.90;100.00;101950.81;4943228;28;20038;-84
2024/03/07 07:50:26;;;;;;;63.95;27.08;;;;;;;3.89;100.00;101948.19;4936699;28;20553;-86
2024/03/07 07:52:58;;;;;;;57.80;25.08;;;;;;;4.02;100.00;101940.06;4940604;28;20050;-84
2024/03/07 07:55:29;;;;;;;53.45;26.08;;;;;;;4.09;100.00;101947.25;4954495;28;20055;-84
2024/03/07 07:57:58;;;;;;;67.60;28.75;;;;;;;4.16;100.00;101948.38;4952156;28;20054;-86
2024/03/07 08:00:28;;;;;;;67.43;26.23;;;;;;;4.16;100.00;101944.88;4956606;28;20414;-87
2024/03/07 08:03:15;;;;;;;64.28;25.75;;;;;;;4.32;100.00;101938.59;4935388;28;20043;-86
2024/03/07 08:05:43;;;;;;;57.42;26.42;;;;;;;4.35;100.00;101939.56;4948859;28;20106;-87
2024/03/07 08:08:13;;;;;;;59.85;24.77;;;;;;;4.42;100.00;101941.56;4958666;28;20047;-86
2024/03/07 08:10:45;;;;;;;57.08;27.00;;;;;;;4.35;100.00;101936.97;4959621;28;20051;-86
2024/03/07 08:13:13;;;;;;;56.88;24.38;;;;;;;4.46;100.00;101939.97;4957614;28;20051;-87
2024/03/07 08:15:42;;;;;;;56.33;25.42;;;;;;;4.57;100.00;101938.63;4962897;28;20381;-85
2024/03/07 08:18:09;;;;;;;56.53;24.50;;;;;;;4.61;100.00;101940.50;4973127;28;20063;-88
2024/03/07 08:20:36;;;;;;;49.47;21.85;;;;;;;4.58;100.00;101936.94;4951528;28;20050;-86
2024/03/07 08:23:24;;;;;;;45.10;24.27;;;;;;;4.62;100.00;101938.81;4981554;28;20043;-87
2024/03/07 08:25:52;;;;;;;53.30;23.95;;;;;;;4.55;100.00;101934.22;4964937;28;20047;-85
2024/03/07 08:28:19;;;;;;;53.30;22.23;;;;;;;4.63;100.00;101938.00;4949932;28;20043;-86
2024/03/07 08:30:45;;;;;;;49.03;22.88;;;;;;;4.57;100.00;101930.00;4964127;28;20066;-85
2024/03/07 08:33:22;;;;;;;49.65;22.95;;;;;;;4.53;100.00;101934.19;4961127;28;20039;-86
2024/03/07 08:35:49;;;;;;;54.00;24.83;;;;;;;4.60;100.00;101931.00;4962761;28;20039;-86
2024/03/07 08:38:20;;;;;;;51.45;22.55;;;;;;;4.61;100.00;101932.72;4954106;28;20037;-86
2024/03/07 08:40:47;;;;;;;48.80;22.67;;;;;;;4.62;100.00;101933.63;4962649;28;20141;-86
2024/03/07 08:43:14;;;;;;;53.40;23.35;;;;;;;4.61;100.00;101939.63;4964482;28;20546;-85
2024/03/07 08:45:43;;;;;;;47.42;22.25;;;;;;;4.62;100.00;101931.03;4952965;28;20074;-85
2024/03/07 08:48:12;;;;;;;46.97;22.88;;;;;;;4.53;100.00;101929.00;4952293;28;20042;-87
2024/03/07 08:50:41;;;;;;;59.30;24.50;;;;;;;4.68;100.00;101931.28;4966977;28;20122;-85
2024/03/07 08:53:08;;;;;;;54.60;23.55;;;;;;;4.77;100.00;101928.09;4966243;28;20069;-86
2024/03/07 08:55:36;;;;;;;52.72;23.63;;;;;;;4.88;100.00;101925.91;4952499;28;20403;-85
2024/03/07 08:58:03;;;;;;;49.28;22.75;;;;;;;4.88;100.00;101928.50;4954629;28;20062;-86
2024/03/07 09:00:35;;;;;;;54.55;23.08;;;;;;;4.84;100.00;101934.38;4964228;28;20070;-85
2024/03/07 09:03:03;;;;;;;55.15;25.15;;;;;;;4.85;100.00;101931.88;4967851;28;20042;-86
2024/03/07 09:05:34;;;;;;;48.92;22.45;;;;;;;4.78;100.00;101932.47;4949523;28;20059;-84
2024/03/07 09:08:08;;;;;;;52.70;22.20;;;;;;;4.75;100.00;101928.03;4954709;28;20051;-86
2024/03/07 09:10:35;;;;;;;55.22;26.38;;;;;;;4.85;100.00;101925.78;4966189;28;20525;-85
2024/03/07 09:13:02;;;;;;;53.33;23.88;;;;;;;4.88;100.00;101931.09;4953116;28;20110;-87
2024/03/07 09:15:28;;;;;;;53.53;23.38;;;;;;;4.82;100.00;101923.94;4971595;28;20074;-83
2024/03/07 09:17:56;;;;;;;56.97;21.95;;;;;;;4.93;100.00;101921.75;4954425;28;20051;-86
2024/03/07 09:20:23;;;;;;;51.53;22.50;;;;;;;5.02;100.00;101919.47;4952246;28;20055;-86
2024/03/07 09:22:54;;;;;;;45.00;20.83;;;;;;;5.19;100.00;101920.03;4966757;28;20156;-86
2024/03/07 09:25:27;;;;;;;49.90;22.15;;;;;;;5.37;100.00;101921.47;4968716;28;20055;-85
2024/03/07 09:27:54;;;;;;;44.40;20.02;;;;;;;5.44;100.00;101923.44;4961128;28;20506;-87
2024/03/07 09:30:25;;;;;;;50.30;22.10;;;;;;;5.41;100.00;101910.34;4971107;28;20054;-86
2024/03/07 09:32:56;;;;;;;46.50;21.00;;;;;;;5.40;100.00;101903.41;4960496;28;20051;-86
2024/03/07 09:35:23;;;;;;;43.13;19.98;;;;;;;5.37;100.00;101911.09;4969244;28;20097;-87
2024/03/07 09:37:53;;;;;;;46.30;19.67;;;;;;;5.37;100.00;101906.78;4950643;28;20055;-86
2024/03/07 09:40:24;;;;;;;44.45;20.95;;;;;;;5.32;100.00;101912.66;4959259;28;20101;-86
2024/03/07 09:42:56;;;;;;;41.75;20.67;;;;;;;5.39;100.00;101915.50;4949487;28;20731;-87
2024/03/07 09:45:24;;;;;;;44.50;20.73;;;;;;;5.46;100.00;101912.28;4955570;28;20059;-87
2024/03/07 09:47:52;;;;;;;35.60;20.85;;;;;;;5.41;100.00;101911.25;4968541;28;20039;-87
2024/03/07 09:50:21;;;;;;;42.20;19.38;;;;;;;5.42;100.00;101917.31;4966045;28;20058;-85
2024/03/07 09:52:53;;;;;;;40.15;19.77;;;;;;;5.52;100.00;101918.50;4963440;28;20050;-86
2024/03/07 09:55:24;;;;;;;39.33;19.15;;;;;;;5.49;100.00;101908.00;4969906;28;20129;-86
2024/03/07 09:57:52;;;;;;;46.78;20.05;;;;;;;5.42;100.00;101913.03;4959783;28;20047;-86
2024/03/07 10:00:25;;;;;;;34.15;18.23;;;;;;;5.45;100.00;101912.25;4969948;28;20046;-87
2024/03/07 10:03:04;;;;;;;40.95;19.58;;;;;;;5.60;100.00;101917.03;4942298;28;20047;-88
2024/03/07 10:05:32;;;;;;;51.05;19.27;;;;;;;5.57;100.00;101915.22;4952016;28;20074;-86
2024/03/07 10:08:00;;;;;;;44.00;18.60;;;;;;;5.55;100.00;101919.47;5008539;23;20050;-85
2024/03/07 10:10:27;;;;;;;38.58;19.30;;;;;;;5.56;100.00;101921.25;4930910;29;20058;-89
2024/03/07 10:12:58;;;;;;;43.08;22.05;;;;;;;5.41;100.00;101913.84;4933846;29;20122;-87
2024/03/07 10:15:33;;;;;;;44.35;20.48;;;;;;;5.34;100.00;101923.97;4926074;29;20063;-87
2024/03/07 10:18:01;;;;;;;43.55;19.42;;;;;;;5.33;100.00;101904.91;4927760;29;20661;-88
2024/03/07 10:20:32;;;;;;;46.70;21.13;;;;;;;5.27;100.00;101915.97;4944039;29;20077;-88
2024/03/07 10:23:00;;;;;;;47.28;20.75;;;;;;;5.29;100.00;101913.44;4950971;29;20114;-87
2024/03/07 10:25:30;;;;;;;42.88;19.70;;;;;;;5.32;100.00;101913.56;4937168;29;20047;-87
2024/03/07 10:27:58;;;;;;;51.97;19.95;;;;;;;5.35;100.00;101918.84;4941917;29;20074;-85
2024/03/07 10:30:27;;;;;;;44.63;20.10;;;;;;;5.33;100.00;101920.47;4925266;29;20047;-87
2024/03/07 10:33:00;;;;;;;46.58;20.52;;;;;;;5.36;100.00;101914.50;4942294;29;20128;-87
2024/03/07 10:35:28;;;;;;;47.85;18.95;;;;;;;5.40;100.00;101908.59;4927366;29;20070;-87
2024/03/07 10:37:57;;;;;;;47.92;22.85;;;;;;;5.39;100.00;101915.50;4941752;29;20050;-87
2024/03/07 10:40:27;;;;;;;44.53;20.17;;;;;;;5.40;100.00;101916.41;4924710;29;20055;-86
2024/03/07 10:42:58;;;;;;;47.08;20.83;;;;;;;5.49;100.00;101910.59;4940372;29;20110;-86
2024/03/07 10:45:34;;;;;;;48.47;20.85;;;;;;;5.36;100.00;101912.81;4944660;29;20110;-87
2024/03/07 10:48:10;;;;;;;45.88;20.20;;;;;;;5.52;100.00;101911.59;4930644;29;20438;-88
2024/03/07 10:51:20;;;;;;;46.22;20.17;;;;;;;5.56;100.00;101904.78;4943561;29;20051;-89
2024/03/07 10:54:05;;;;;;;49.85;20.23;;;;;;;5.33;100.00;101902.31;4950242;28;20134;-89
2024/03/07 10:56:54;;;;;;;43.58;18.20;;;;;;;5.46;100.00;101901.00;4964107;28;20078;-87
2024/03/07 10:59:27;;;;;;;46.65;20.48;;;;;;;5.49;100.00;101903.72;4959182;28;20090;-87
2024/03/07 11:02:01;;;;;;;42.35;19.15;;;;;;;5.53;100.00;101902.97;4940332;28;20055;-89
2024/03/07 11:04:29;;;;;;;46.85;18.95;;;;;;;5.71;100.00;101888.78;4968662;28;20074;-87
2024/03/07 11:06:58;;;;;;;48.47;18.70;;;;;;;6.10;100.00;101889.16;4951928;28;20235;-87
2024/03/07 11:09:29;;;;;;;44.28;18.95;;;;;;;6.24;100.00;101886.06;4957923;28;20047;-87
2024/03/07 11:11:59;;;;;;;40.67;20.98;;;;;;;6.35;100.00;101889.84;4965590;28;20066;-85
2024/03/07 11:14:28;;;;;;;50.20;22.10;;;;;;;6.49;100.00;101886.75;4960167;28;20502;-89
2024/03/07 11:16:57;;;;;;;46.08;19.13;;;;;;;6.47;100.00;101886.72;4946247;28;20046;-86
2024/03/07 11:19:31;;;;;;;55.17;21.13;;;;;;;6.28;100.00;101883.59;4933118;28;20529;-89
2024/03/07 11:22:00;;;;;;;52.33;21.75;;;;;;;6.43;100.00;101880.53;4962484;28;20137;-85
2024/03/07 11:24:32;;;;;;;47.80;20.92;;;;;;;6.50;100.00;101881.59;4967497;28;20054;-87